METAR Data
IDs: Format: Raw Decoded Include TAF

Data at: 2231 UTC 02 Aug 2021

EDMA 022220Z AUTO 14005KT 9999 FEW071/// BKN085/// 14/13 Q1017